sensor_id;sensor_type;location;lat;lon;timestamp;P1;durP1;ratioP1;P2;durP2;ratioP2
11039;SDS011;5573;49.592;8.662;2024-02-04T00:00:55;53.72;;;50.92;;
11039;SDS011;5573;49.592;8.662;2024-02-04T00:03:23;47.20;;;44.80;;
11039;SDS011;5573;49.592;8.662;2024-02-04T00:05:51;49.90;;;47.33;;
11039;SDS011;5573;49.592;8.662;2024-02-04T00:08:18;48.37;;;45.90;;
11039;SDS011;5573;49.592;8.662;2024-02-04T00:10:47;49.23;;;46.67;;
11039;SDS011;5573;49.592;8.662;2024-02-04T00:13:15;50.37;;;47.77;;
11039;SDS011;5573;49.592;8.662;2024-02-04T00:15:43;51.53;;;48.87;;
11039;SDS011;5573;49.592;8.662;2024-02-04T00:18:10;52.60;;;49.87;;
11039;SDS011;5573;49.592;8.662;2024-02-04T00:20:38;52.03;;;49.27;;
11039;SDS011;5573;49.592;8.662;2024-02-04T00:23:06;52.73;;;50.00;;
11039;SDS011;5573;49.592;8.662;2024-02-04T00:25:33;50.33;;;47.73;;
11039;SDS011;5573;49.592;8.662;2024-02-04T00:28:02;51.38;;;48.67;;
11039;SDS011;5573;49.592;8.662;2024-02-04T00:30:30;50.67;;;48.05;;
11039;SDS011;5573;49.592;8.662;2024-02-04T00:32:58;52.03;;;49.33;;
11039;SDS011;5573;49.592;8.662;2024-02-04T00:35:29;47.63;;;45.17;;
11039;SDS011;5573;49.592;8.662;2024-02-04T00:37:57;50.83;;;48.20;;
11039;SDS011;5573;49.592;8.662;2024-02-04T00:40:25;52.63;;;49.83;;
11039;SDS011;5573;49.592;8.662;2024-02-04T00:42:54;51.60;;;48.90;;
11039;SDS011;5573;49.592;8.662;2024-02-04T00:45:23;47.77;;;45.30;;
11039;SDS011;5573;49.592;8.662;2024-02-04T00:47:51;52.63;;;49.90;;
11039;SDS011;5573;49.592;8.662;2024-02-04T00:50:18;51.17;;;48.50;;
11039;SDS011;5573;49.592;8.662;2024-02-04T00:52:46;50.40;;;47.80;;
11039;SDS011;5573;49.592;8.662;2024-02-04T00:55:14;47.43;;;44.97;;
11039;SDS011;5573;49.592;8.662;2024-02-04T00:57:41;50.33;;;47.77;;
11039;SDS011;5573;49.592;8.662;2024-02-04T01:00:09;51.60;;;48.90;;
11039;SDS011;5573;49.592;8.662;2024-02-04T01:02:40;48.50;;;46.00;;
11039;SDS011;5573;49.592;8.662;2024-02-04T01:05:08;47.27;;;44.83;;
11039;SDS011;5573;49.592;8.662;2024-02-04T01:07:35;50.23;;;47.60;;
11039;SDS011;5573;49.592;8.662;2024-02-04T01:10:03;46.60;;;44.17;;
11039;SDS011;5573;49.592;8.662;2024-02-04T01:12:35;50.03;;;47.43;;
11039;SDS011;5573;49.592;8.662;2024-02-04T01:15:03;45.33;;;42.93;;
11039;SDS011;5573;49.592;8.662;2024-02-04T01:17:31;43.77;;;41.50;;
11039;SDS011;5573;49.592;8.662;2024-02-04T01:20:01;42.23;;;40.07;;
11039;SDS011;5573;49.592;8.662;2024-02-04T01:22:30;42.83;;;40.63;;
11039;SDS011;5573;49.592;8.662;2024-02-04T01:24:57;46.67;;;44.27;;
11039;SDS011;5573;49.592;8.662;2024-02-04T01:27:25;45.73;;;43.40;;
11039;SDS011;5573;49.592;8.662;2024-02-04T01:29:53;43.30;;;41.07;;
11039;SDS011;5573;49.592;8.662;2024-02-04T01:32:23;43.10;;;40.90;;
11039;SDS011;5573;49.592;8.662;2024-02-04T01:34:51;43.10;;;40.90;;
11039;SDS011;5573;49.592;8.662;2024-02-04T01:37:20;43.00;;;40.77;;
11039;SDS011;5573;49.592;8.662;2024-02-04T01:39:48;45.27;;;42.90;;
11039;SDS011;5573;49.592;8.662;2024-02-04T01:42:15;43.77;;;41.50;;
11039;SDS011;5573;49.592;8.662;2024-02-04T01:44:43;44.70;;;42.40;;
11039;SDS011;5573;49.592;8.662;2024-02-04T01:47:10;40.20;;;38.13;;
11039;SDS011;5573;49.592;8.662;2024-02-04T01:49:39;41.90;;;39.73;;
11039;SDS011;5573;49.592;8.662;2024-02-04T01:52:07;43.07;;;40.87;;
11039;SDS011;5573;49.592;8.662;2024-02-04T01:54:37;39.87;;;37.80;;
11039;SDS011;5573;49.592;8.662;2024-02-04T01:57:06;42.57;;;40.37;;
11039;SDS011;5573;49.592;8.662;2024-02-04T01:59:33;41.93;;;39.77;;
11039;SDS011;5573;49.592;8.662;2024-02-04T02:02:01;46.10;;;43.73;;
11039;SDS011;5573;49.592;8.662;2024-02-04T02:04:29;45.13;;;42.80;;
11039;SDS011;5573;49.592;8.662;2024-02-04T02:06:56;48.93;;;46.37;;
11039;SDS011;5573;49.592;8.662;2024-02-04T02:09:27;44.77;;;42.40;;
11039;SDS011;5573;49.592;8.662;2024-02-04T02:12:00;45.73;;;43.37;;
11039;SDS011;5573;49.592;8.662;2024-02-04T02:14:31;44.43;;;42.13;;
11039;SDS011;5573;49.592;8.662;2024-02-04T02:17:00;47.97;;;45.47;;
11039;SDS011;5573;49.592;8.662;2024-02-04T02:19:32;50.53;;;47.93;;
11039;SDS011;5573;49.592;8.662;2024-02-04T02:22:02;46.20;;;43.80;;
11039;SDS011;5573;49.592;8.662;2024-02-04T02:24:34;43.13;;;40.90;;
11039;SDS011;5573;49.592;8.662;2024-02-04T02:27:02;46.00;;;43.60;;
11039;SDS011;5573;49.592;8.662;2024-02-04T02:29:32;45.30;;;42.93;;
11039;SDS011;5573;49.592;8.662;2024-02-04T02:32:00;46.50;;;44.03;;
11039;SDS011;5573;49.592;8.662;2024-02-04T02:34:29;44.53;;;42.20;;
11039;SDS011;5573;49.592;8.662;2024-02-04T02:37:07;45.93;;;43.53;;
11039;SDS011;5573;49.592;8.662;2024-02-04T02:39:38;44.60;;;42.27;;
11039;SDS011;5573;49.592;8.662;2024-02-04T02:42:08;47.97;;;45.50;;
11039;SDS011;5573;49.592;8.662;2024-02-04T02:44:37;46.53;;;44.07;;
11039;SDS011;5573;49.592;8.662;2024-02-04T02:47:05;47.73;;;45.27;;
11039;SDS011;5573;49.592;8.662;2024-02-04T02:49:34;44.30;;;42.00;;
11039;SDS011;5573;49.592;8.662;2024-02-04T02:52:01;44.87;;;42.53;;
11039;SDS011;5573;49.592;8.662;2024-02-04T02:54:29;52.70;;;49.93;;
11039;SDS011;5573;49.592;8.662;2024-02-04T02:56:58;46.03;;;43.67;;
11039;SDS011;5573;49.592;8.662;2024-02-04T02:59:26;45.50;;;43.13;;
11039;SDS011;5573;49.592;8.662;2024-02-04T03:01:53;48.47;;;45.93;;
11039;SDS011;5573;49.592;8.662;2024-02-04T03:04:21;50.30;;;47.67;;
11039;SDS011;5573;49.592;8.662;2024-02-04T03:06:48;47.47;;;45.00;;
11039;SDS011;5573;49.592;8.662;2024-02-04T03:09:16;48.80;;;46.27;;
11039;SDS011;5573;49.592;8.662;2024-02-04T03:11:44;47.97;;;45.47;;
11039;SDS011;5573;49.592;8.662;2024-02-04T03:14:15;50.60;;;48.00;;
11039;SDS011;5573;49.592;8.662;2024-02-04T03:16:43;52.73;;;50.00;;
11039;SDS011;5573;49.592;8.662;2024-02-04T03:19:11;50.40;;;47.77;;
11039;SDS011;5573;49.592;8.662;2024-02-04T03:21:39;51.90;;;49.17;;
11039;SDS011;5573;49.592;8.662;2024-02-04T03:24:06;52.60;;;49.80;;
11039;SDS011;5573;49.592;8.662;2024-02-04T03:26:35;53.13;;;50.37;;
11039;SDS011;5573;49.592;8.662;2024-02-04T03:29:02;53.17;;;50.40;;
11039;SDS011;5573;49.592;8.662;2024-02-04T03:31:32;55.07;;;52.17;;
11039;SDS011;5573;49.592;8.662;2024-02-04T03:34:01;52.87;;;50.07;;
11039;SDS011;5573;49.592;8.662;2024-02-04T03:36:30;48.73;;;46.17;;
11039;SDS011;5573;49.592;8.662;2024-02-04T03:38:57;51.07;;;48.40;;
11039;SDS011;5573;49.592;8.662;2024-02-04T03:41:25;53.87;;;51.07;;
11039;SDS011;5573;49.592;8.662;2024-02-04T03:43:53;55.20;;;52.33;;
11039;SDS011;5573;49.592;8.662;2024-02-04T03:46:21;47.00;;;44.57;;
11039;SDS011;5573;49.592;8.662;2024-02-04T03:48:50;50.97;;;48.33;;
11039;SDS011;5573;49.592;8.662;2024-02-04T03:51:18;49.27;;;46.70;;
11039;SDS011;5573;49.592;8.662;2024-02-04T03:53:47;49.03;;;46.50;;
11039;SDS011;5573;49.592;8.662;2024-02-04T03:56:15;51.33;;;48.67;;
11039;SDS011;5573;49.592;8.662;2024-02-04T03:58:43;45.83;;;43.50;;
11039;SDS011;5573;49.592;8.662;2024-02-04T04:01:11;47.83;;;45.27;;
11039;SDS011;5573;49.592;8.662;2024-02-04T04:03:39;47.50;;;45.03;;
11039;SDS011;5573;49.592;8.662;2024-02-04T04:06:08;47.13;;;44.67;;
11039;SDS011;5573;49.592;8.662;2024-02-04T04:08:36;47.73;;;45.23;;
11039;SDS011;5573;49.592;8.662;2024-02-04T04:11:05;46.40;;;43.97;;
11039;SDS011;5573;49.592;8.662;2024-02-04T04:13:32;42.93;;;40.73;;
11039;SDS011;5573;49.592;8.662;2024-02-04T04:16:01;47.57;;;45.10;;
11039;SDS011;5573;49.592;8.662;2024-02-04T04:18:30;48.37;;;45.87;;
11039;SDS011;5573;49.592;8.662;2024-02-04T04:20:58;49.43;;;46.83;;
11039;SDS011;5573;49.592;8.662;2024-02-04T04:23:27;48.37;;;45.83;;
11039;SDS011;5573;49.592;8.662;2024-02-04T04:25:54;45.87;;;43.50;;
11039;SDS011;5573;49.592;8.662;2024-02-04T04:28:22;44.83;;;42.53;;
11039;SDS011;5573;49.592;8.662;2024-02-04T04:30:50;47.80;;;45.30;;
11039;SDS011;5573;49.592;8.662;2024-02-04T04:33:18;46.20;;;43.80;;
11039;SDS011;5573;49.592;8.662;2024-02-04T04:35:45;45.37;;;43.03;;
11039;SDS011;5573;49.592;8.662;2024-02-04T04:38:13;50.13;;;47.57;;
11039;SDS011;5573;49.592;8.662;2024-02-04T04:40:42;47.03;;;44.60;;
11039;SDS011;5573;49.592;8.662;2024-02-04T04:43:10;42.10;;;39.97;;
11039;SDS011;5573;49.592;8.662;2024-02-04T04:45:38;48.47;;;45.97;;
11039;SDS011;5573;49.592;8.662;2024-02-04T04:48:05;47.03;;;44.63;;
11039;SDS011;5573;49.592;8.662;2024-02-04T04:50:34;44.00;;;41.70;;
11039;SDS011;5573;49.592;8.662;2024-02-04T04:53:02;44.10;;;41.80;;
11039;SDS011;5573;49.592;8.662;2024-02-04T04:55:29;46.63;;;44.27;;
11039;SDS011;5573;49.592;8.662;2024-02-04T04:57:58;44.93;;;42.57;;
11039;SDS011;5573;49.592;8.662;2024-02-04T05:00:26;44.23;;;41.97;;
11039;SDS011;5573;49.592;8.662;2024-02-04T05:02:54;42.80;;;40.50;;
11039;SDS011;5573;49.592;8.662;2024-02-04T05:05:21;46.57;;;44.17;;
11039;SDS011;5573;49.592;8.662;2024-02-04T05:07:49;44.67;;;42.40;;
11039;SDS011;5573;49.592;8.662;2024-02-04T05:10:17;50.73;;;48.10;;
11039;SDS011;5573;49.592;8.662;2024-02-04T05:12:45;45.37;;;43.03;;
11039;SDS011;5573;49.592;8.662;2024-02-04T05:15:14;44.53;;;42.23;;
11039;SDS011;5573;49.592;8.662;2024-02-04T05:17:41;41.93;;;39.80;;
11039;SDS011;5573;49.592;8.662;2024-02-04T05:20:09;42.53;;;40.33;;
11039;SDS011;5573;49.592;8.662;2024-02-04T05:22:37;46.27;;;43.90;;
11039;SDS011;5573;49.592;8.662;2024-02-04T05:25:05;45.57;;;43.23;;
11039;SDS011;5573;49.592;8.662;2024-02-04T05:27:33;48.93;;;46.33;;
11039;SDS011;5573;49.592;8.662;2024-02-04T05:30:02;46.57;;;44.17;;
11039;SDS011;5573;49.592;8.662;2024-02-04T05:32:32;46.80;;;44.40;;
11039;SDS011;5573;49.592;8.662;2024-02-04T05:34:59;43.00;;;40.77;;
11039;SDS011;5573;49.592;8.662;2024-02-04T05:37:27;44.53;;;42.23;;
11039;SDS011;5573;49.592;8.662;2024-02-04T05:39:54;44.80;;;42.50;;
11039;SDS011;5573;49.592;8.662;2024-02-04T05:42:23;47.73;;;45.30;;
11039;SDS011;5573;49.592;8.662;2024-02-04T05:44:51;46.93;;;44.53;;
11039;SDS011;5573;49.592;8.662;2024-02-04T05:47:19;44.90;;;42.60;;
11039;SDS011;5573;49.592;8.662;2024-02-04T05:49:47;44.30;;;42.00;;
11039;SDS011;5573;49.592;8.662;2024-02-04T05:52:15;45.27;;;42.90;;
11039;SDS011;5573;49.592;8.662;2024-02-04T05:54:43;47.70;;;45.30;;
11039;SDS011;5573;49.592;8.662;2024-02-04T05:57:11;46.17;;;43.77;;
11039;SDS011;5573;49.592;8.662;2024-02-04T05:59:39;48.63;;;46.10;;
11039;SDS011;5573;49.592;8.662;2024-02-04T06:02:06;47.23;;;44.80;;
11039;SDS011;5573;49.592;8.662;2024-02-04T06:04:34;44.53;;;42.23;;
11039;SDS011;5573;49.592;8.662;2024-02-04T06:07:05;43.53;;;41.33;;
11039;SDS011;5573;49.592;8.662;2024-02-04T06:09:32;45.70;;;43.33;;
11039;SDS011;5573;49.592;8.662;2024-02-04T06:12:00;44.30;;;42.00;;
11039;SDS011;5573;49.592;8.662;2024-02-04T06:14:28;47.47;;;45.03;;
11039;SDS011;5573;49.592;8.662;2024-02-04T06:16:56;47.47;;;45.07;;
11039;SDS011;5573;49.592;8.662;2024-02-04T06:19:23;42.03;;;39.90;;
11039;SDS011;5573;49.592;8.662;2024-02-04T06:21:51;45.53;;;43.20;;
11039;SDS011;5573;49.592;8.662;2024-02-04T06:24:20;44.43;;;42.17;;
11039;SDS011;5573;49.592;8.662;2024-02-04T06:26:48;45.77;;;43.43;;
11039;SDS011;5573;49.592;8.662;2024-02-04T06:29:15;42.60;;;40.43;;
11039;SDS011;5573;49.592;8.662;2024-02-04T06:31:44;44.33;;;42.07;;
11039;SDS011;5573;49.592;8.662;2024-02-04T06:34:11;47.43;;;45.00;;
11039;SDS011;5573;49.592;8.662;2024-02-04T06:36:41;45.27;;;42.93;;
11039;SDS011;5573;49.592;8.662;2024-02-04T06:39:09;44.70;;;42.40;;
11039;SDS011;5573;49.592;8.662;2024-02-04T06:41:38;47.37;;;44.93;;
11039;SDS011;5573;49.592;8.662;2024-02-04T06:44:05;41.33;;;39.20;;
11039;SDS011;5573;49.592;8.662;2024-02-04T06:46:33;47.43;;;45.00;;
11039;SDS011;5573;49.592;8.662;2024-02-04T06:49:01;43.70;;;41.47;;
11039;SDS011;5573;49.592;8.662;2024-02-04T06:51:28;44.93;;;42.63;;
11039;SDS011;5573;49.592;8.662;2024-02-04T06:53:56;43.30;;;41.07;;
11039;SDS011;5573;49.592;8.662;2024-02-04T06:56:24;48.77;;;46.20;;
11039;SDS011;5573;49.592;8.662;2024-02-04T06:58:53;43.13;;;40.93;;
11039;SDS011;5573;49.592;8.662;2024-02-04T07:01:21;47.27;;;44.47;;
11039;SDS011;5573;49.592;8.662;2024-02-04T07:03:48;44.73;;;42.47;;
11039;SDS011;5573;49.592;8.662;2024-02-04T07:06:16;41.10;;;38.97;;
11039;SDS011;5573;49.592;8.662;2024-02-04T07:08:44;47.93;;;45.50;;
11039;SDS011;5573;49.592;8.662;2024-02-04T07:11:12;43.33;;;41.10;;
11039;SDS011;5573;49.592;8.662;2024-02-04T07:13:40;49.87;;;47.27;;
11039;SDS011;5573;49.592;8.662;2024-02-04T07:16:08;49.07;;;46.53;;
11039;SDS011;5573;49.592;8.662;2024-02-04T07:18:36;48.03;;;45.53;;
11039;SDS011;5573;49.592;8.662;2024-02-04T07:21:04;43.53;;;41.27;;
11039;SDS011;5573;49.592;8.662;2024-02-04T07:23:31;49.80;;;47.20;;
11039;SDS011;5573;49.592;8.662;2024-02-04T07:25:59;46.63;;;44.23;;
11039;SDS011;5573;49.592;8.662;2024-02-04T07:28:26;48.50;;;46.00;;
11039;SDS011;5573;49.592;8.662;2024-02-04T07:30:54;47.10;;;44.70;;
11039;SDS011;5573;49.592;8.662;2024-02-04T07:33:23;43.20;;;41.00;;
11039;SDS011;5573;49.592;8.662;2024-02-04T07:35:50;47.23;;;44.77;;
11039;SDS011;5573;49.592;8.662;2024-02-04T07:38:18;44.23;;;41.93;;
11039;SDS011;5573;49.592;8.662;2024-02-04T07:40:46;45.10;;;42.80;;
11039;SDS011;5573;49.592;8.662;2024-02-04T07:43:13;44.17;;;41.87;;
11039;SDS011;5573;49.592;8.662;2024-02-04T07:45:41;42.70;;;40.50;;
11039;SDS011;5573;49.592;8.662;2024-02-04T07:48:09;43.00;;;40.77;;
11039;SDS011;5573;49.592;8.662;2024-02-04T07:50:37;44.40;;;42.13;;
11039;SDS011;5573;49.592;8.662;2024-02-04T07:53:05;39.13;;;37.13;;
11039;SDS011;5573;49.592;8.662;2024-02-04T07:55:32;41.33;;;39.20;;
11039;SDS011;5573;49.592;8.662;2024-02-04T07:58:00;44.57;;;42.30;;
11039;SDS011;5573;49.592;8.662;2024-02-04T08:00:27;43.63;;;41.40;;
11039;SDS011;5573;49.592;8.662;2024-02-04T08:02:55;37.20;;;35.27;;
11039;SDS011;5573;49.592;8.662;2024-02-04T08:05:22;41.30;;;39.17;;
11039;SDS011;5573;49.592;8.662;2024-02-04T08:07:51;42.57;;;40.40;;
11039;SDS011;5573;49.592;8.662;2024-02-04T08:10:19;46.50;;;44.10;;
11039;SDS011;5573;49.592;8.662;2024-02-04T08:12:47;41.97;;;39.80;;
11039;SDS011;5573;49.592;8.662;2024-02-04T08:15:17;40.97;;;38.87;;
11039;SDS011;5573;49.592;8.662;2024-02-04T08:17:45;47.20;;;44.80;;
11039;SDS011;5573;49.592;8.662;2024-02-04T08:20:12;43.40;;;41.17;;
11039;SDS011;5573;49.592;8.662;2024-02-04T08:22:40;44.23;;;41.93;;
11039;SDS011;5573;49.592;8.662;2024-02-04T08:25:09;40.80;;;38.70;;
11039;SDS011;5573;49.592;8.662;2024-02-04T08:27:38;41.20;;;39.07;;
11039;SDS011;5573;49.592;8.662;2024-02-04T08:30:06;45.07;;;42.63;;
11039;SDS011;5573;49.592;8.662;2024-02-04T08:32:33;41.00;;;38.90;;
11039;SDS011;5573;49.592;8.662;2024-02-04T08:35:01;43.93;;;41.67;;
11039;SDS011;5573;49.592;8.662;2024-02-04T08:37:29;45.33;;;43.00;;
11039;SDS011;5573;49.592;8.662;2024-02-04T08:39:56;42.00;;;39.87;;
11039;SDS011;5573;49.592;8.662;2024-02-04T08:42:25;43.60;;;41.37;;
11039;SDS011;5573;49.592;8.662;2024-02-04T08:44:53;39.63;;;37.60;;
11039;SDS011;5573;49.592;8.662;2024-02-04T08:47:21;44.03;;;41.77;;
11039;SDS011;5573;49.592;8.662;2024-02-04T08:49:48;42.07;;;39.93;;
11039;SDS011;5573;49.592;8.662;2024-02-04T08:52:16;41.47;;;39.30;;
11039;SDS011;5573;49.592;8.662;2024-02-04T08:54:44;41.97;;;39.83;;
11039;SDS011;5573;49.592;8.662;2024-02-04T08:57:12;42.07;;;39.90;;
11039;SDS011;5573;49.592;8.662;2024-02-04T08:59:41;45.83;;;43.47;;
11039;SDS011;5573;49.592;8.662;2024-02-04T09:02:08;44.13;;;41.83;;
11039;SDS011;5573;49.592;8.662;2024-02-04T09:04:37;47.53;;;45.07;;
11039;SDS011;5573;49.592;8.662;2024-02-04T09:07:07;42.37;;;40.17;;
11039;SDS011;5573;49.592;8.662;2024-02-04T09:09:35;39.70;;;37.67;;
11039;SDS011;5573;49.592;8.662;2024-02-04T09:12:03;45.27;;;42.93;;
11039;SDS011;5573;49.592;8.662;2024-02-04T09:14:31;44.27;;;42.00;;
11039;SDS011;5573;49.592;8.662;2024-02-04T09:17:03;40.27;;;38.20;;
11039;SDS011;5573;49.592;8.662;2024-02-04T09:19:31;45.07;;;42.73;;
11039;SDS011;5573;49.592;8.662;2024-02-04T09:21:59;42.37;;;40.20;;
11039;SDS011;5573;49.592;8.662;2024-02-04T09:24:29;42.10;;;39.93;;
11039;SDS011;5573;49.592;8.662;2024-02-04T09:26:57;42.63;;;40.43;;
11039;SDS011;5573;49.592;8.662;2024-02-04T09:29:24;43.00;;;40.77;;
11039;SDS011;5573;49.592;8.662;2024-02-04T09:31:53;42.43;;;40.27;;
11039;SDS011;5573;49.592;8.662;2024-02-04T09:34:22;44.37;;;42.07;;
11039;SDS011;5573;49.592;8.662;2024-02-04T09:36:50;42.17;;;40.00;;
11039;SDS011;5573;49.592;8.662;2024-02-04T09:39:20;40.97;;;38.87;;
11039;SDS011;5573;49.592;8.662;2024-02-04T09:41:47;42.60;;;40.43;;
11039;SDS011;5573;49.592;8.662;2024-02-04T09:44:15;41.63;;;39.47;;
11039;SDS011;5573;49.592;8.662;2024-02-04T09:46:44;42.10;;;39.93;;
11039;SDS011;5573;49.592;8.662;2024-02-04T09:49:13;41.33;;;39.20;;
11039;SDS011;5573;49.592;8.662;2024-02-04T09:51:42;42.53;;;40.37;;
11039;SDS011;5573;49.592;8.662;2024-02-04T09:54:11;44.33;;;42.03;;
11039;SDS011;5573;49.592;8.662;2024-02-04T09:56:42;44.87;;;42.60;;
11039;SDS011;5573;49.592;8.662;2024-02-04T09:59:09;42.03;;;39.87;;
11039;SDS011;5573;49.592;8.662;2024-02-04T10:01:38;46.20;;;43.80;;
11039;SDS011;5573;49.592;8.662;2024-02-04T10:04:07;42.10;;;39.97;;
11039;SDS011;5573;49.592;8.662;2024-02-04T10:06:35;45.23;;;42.93;;
11039;SDS011;5573;49.592;8.662;2024-02-04T10:09:05;51.63;;;48.97;;
11039;SDS011;5573;49.592;8.662;2024-02-04T10:11:33;44.80;;;42.50;;
11039;SDS011;5573;49.592;8.662;2024-02-04T10:14:01;44.72;;;42.42;;
11039;SDS011;5573;49.592;8.662;2024-02-04T10:16:29;48.30;;;45.80;;
11039;SDS011;5573;49.592;8.662;2024-02-04T10:18:56;43.10;;;40.90;;
11039;SDS011;5573;49.592;8.662;2024-02-04T10:21:24;39.43;;;37.40;;
11039;SDS011;5573;49.592;8.662;2024-02-04T10:23:52;37.83;;;35.93;;
11039;SDS011;5573;49.592;8.662;2024-02-04T10:26:21;38.73;;;36.77;;
11039;SDS011;5573;49.592;8.662;2024-02-04T10:28:49;37.77;;;35.87;;
11039;SDS011;5573;49.592;8.662;2024-02-04T10:31:16;38.27;;;36.33;;
11039;SDS011;5573;49.592;8.662;2024-02-04T10:33:44;40.17;;;38.07;;
11039;SDS011;5573;49.592;8.662;2024-02-04T10:36:12;41.27;;;39.17;;
11039;SDS011;5573;49.592;8.662;2024-02-04T10:38:40;41.90;;;39.72;;
11039;SDS011;5573;49.592;8.662;2024-02-04T10:41:07;42.00;;;39.90;;
11039;SDS011;5573;49.592;8.662;2024-02-04T10:43:39;41.33;;;39.20;;
11039;SDS011;5573;49.592;8.662;2024-02-04T10:46:09;45.97;;;43.58;;
11039;SDS011;5573;49.592;8.662;2024-02-04T10:48:37;45.38;;;43.05;;
11039;SDS011;5573;49.592;8.662;2024-02-04T10:51:10;42.60;;;40.43;;
11039;SDS011;5573;49.592;8.662;2024-02-04T10:53:40;42.92;;;40.72;;
11039;SDS011;5573;49.592;8.662;2024-02-04T10:56:09;43.93;;;41.67;;
11039;SDS011;5573;49.592;8.662;2024-02-04T10:58:38;42.87;;;40.67;;
11039;SDS011;5573;49.592;8.662;2024-02-04T11:01:07;43.15;;;40.85;;
11039;SDS011;5573;49.592;8.662;2024-02-04T11:03:35;42.33;;;40.13;;
11039;SDS011;5573;49.592;8.662;2024-02-04T11:06:03;44.45;;;42.15;;
11039;SDS011;5573;49.592;8.662;2024-02-04T11:08:31;42.47;;;40.30;;
11039;SDS011;5573;49.592;8.662;2024-02-04T11:10:59;41.13;;;39.00;;
11039;SDS011;5573;49.592;8.662;2024-02-04T11:13:26;44.28;;;41.95;;
11039;SDS011;5573;49.592;8.662;2024-02-04T11:15:55;44.63;;;42.30;;
11039;SDS011;5573;49.592;8.662;2024-02-04T11:18:29;45.90;;;43.50;;
11039;SDS011;5573;49.592;8.662;2024-02-04T11:21:09;43.80;;;41.53;;
11039;SDS011;5573;49.592;8.662;2024-02-04T11:23:41;40.65;;;38.58;;
11039;SDS011;5573;49.592;8.662;2024-02-04T11:26:13;42.33;;;40.17;;
11039;SDS011;5573;49.592;8.662;2024-02-04T11:28:42;41.03;;;38.90;;
11039;SDS011;5573;49.592;8.662;2024-02-04T11:31:14;38.97;;;37.00;;
11039;SDS011;5573;49.592;8.662;2024-02-04T11:33:44;45.35;;;43.03;;
11039;SDS011;5573;49.592;8.662;2024-02-04T11:36:13;39.53;;;37.47;;
11039;SDS011;5573;49.592;8.662;2024-02-04T11:38:41;42.65;;;40.50;;
11039;SDS011;5573;49.592;8.662;2024-02-04T11:41:08;47.30;;;44.88;;
11039;SDS011;5573;49.592;8.662;2024-02-04T11:43:36;52.45;;;49.75;;
11039;SDS011;5573;49.592;8.662;2024-02-04T11:46:05;49.58;;;46.95;;
11039;SDS011;5573;49.592;8.662;2024-02-04T11:48:34;48.95;;;46.42;;
11039;SDS011;5573;49.592;8.662;2024-02-04T11:51:05;54.80;;;51.97;;
11039;SDS011;5573;49.592;8.662;2024-02-04T11:53:34;55.88;;;52.95;;
11039;SDS011;5573;49.592;8.662;2024-02-04T11:56:02;60.17;;;57.08;;
11039;SDS011;5573;49.592;8.662;2024-02-04T11:58:30;59.13;;;56.08;;
11039;SDS011;5573;49.592;8.662;2024-02-04T12:00:58;60.70;;;57.55;;
11039;SDS011;5573;49.592;8.662;2024-02-04T12:03:29;61.88;;;58.67;;
11039;SDS011;5573;49.592;8.662;2024-02-04T12:05:58;62.28;;;59.08;;
11039;SDS011;5573;49.592;8.662;2024-02-04T12:08:28;67.75;;;64.30;;
11039;SDS011;5573;49.592;8.662;2024-02-04T12:10:56;65.75;;;62.30;;
11039;SDS011;5573;49.592;8.662;2024-02-04T12:13:24;64.00;;;60.70;;
11039;SDS011;5573;49.592;8.662;2024-02-04T12:15:51;66.15;;;62.75;;
11039;SDS011;5573;49.592;8.662;2024-02-04T12:18:19;65.50;;;62.10;;
11039;SDS011;5573;49.592;8.662;2024-02-04T12:20:47;63.88;;;60.58;;
11039;SDS011;5573;49.592;8.662;2024-02-04T12:23:16;57.78;;;54.78;;
11039;SDS011;5573;49.592;8.662;2024-02-04T12:25:45;62.55;;;59.35;;
11039;SDS011;5573;49.592;8.662;2024-02-04T12:28:13;51.95;;;49.25;;
11039;SDS011;5573;49.592;8.662;2024-02-04T12:30:41;53.15;;;50.38;;
11039;SDS011;5573;49.592;8.662;2024-02-04T12:33:19;55.70;;;52.85;;
11039;SDS011;5573;49.592;8.662;2024-02-04T12:35:51;57.05;;;54.08;;
11039;SDS011;5573;49.592;8.662;2024-02-04T12:38:22;60.20;;;57.13;;
11039;SDS011;5573;49.592;8.662;2024-02-04T12:40:52;60.45;;;57.28;;
11039;SDS011;5573;49.592;8.662;2024-02-04T12:43:19;60.38;;;57.25;;
11039;SDS011;5573;49.592;8.662;2024-02-04T12:45:47;64.30;;;61.00;;
11039;SDS011;5573;49.592;8.662;2024-02-04T12:48:15;58.80;;;55.78;;
11039;SDS011;5573;49.592;8.662;2024-02-04T12:50:43;55.90;;;52.95;;
11039;SDS011;5573;49.592;8.662;2024-02-04T12:53:11;61.45;;;58.28;;
11039;SDS011;5573;49.592;8.662;2024-02-04T12:55:39;57.85;;;54.88;;
11039;SDS011;5573;49.592;8.662;2024-02-04T12:58:11;61.78;;;58.63;;
11039;SDS011;5573;49.592;8.662;2024-02-04T13:00:41;62.17;;;58.97;;
11039;SDS011;5573;49.592;8.662;2024-02-04T13:03:09;61.22;;;58.08;;
11039;SDS011;5573;49.592;8.662;2024-02-04T13:05:37;57.55;;;54.60;;
11039;SDS011;5573;49.592;8.662;2024-02-04T13:08:05;58.67;;;55.63;;
11039;SDS011;5573;49.592;8.662;2024-02-04T13:10:33;60.65;;;57.53;;
11039;SDS011;5573;49.592;8.662;2024-02-04T13:13:02;60.10;;;57.03;;
11039;SDS011;5573;49.592;8.662;2024-02-04T13:15:34;61.30;;;58.13;;
11039;SDS011;5573;49.592;8.662;2024-02-04T13:18:02;60.10;;;57.00;;
11039;SDS011;5573;49.592;8.662;2024-02-04T13:20:30;59.75;;;56.65;;
11039;SDS011;5573;49.592;8.662;2024-02-04T13:22:58;58.53;;;55.47;;
11039;SDS011;5573;49.592;8.662;2024-02-04T13:25:27;52.40;;;49.67;;
11039;SDS011;5573;49.592;8.662;2024-02-04T13:27:54;60.85;;;57.65;;
11039;SDS011;5573;49.592;8.662;2024-02-04T13:30:22;61.35;;;58.20;;
11039;SDS011;5573;49.592;8.662;2024-02-04T13:32:52;54.60;;;51.80;;
11039;SDS011;5573;49.592;8.662;2024-02-04T13:35:19;54.17;;;51.38;;
11039;SDS011;5573;49.592;8.662;2024-02-04T13:37:48;61.15;;;58.00;;
11039;SDS011;5573;49.592;8.662;2024-02-04T13:40:18;58.10;;;55.10;;
11039;SDS011;5573;49.592;8.662;2024-02-04T13:42:46;63.03;;;59.78;;
11039;SDS011;5573;49.592;8.662;2024-02-04T13:45:15;59.65;;;56.58;;
11039;SDS011;5573;49.592;8.662;2024-02-04T13:47:43;59.88;;;56.80;;
11039;SDS011;5573;49.592;8.662;2024-02-04T13:50:12;68.10;;;64.63;;
11039;SDS011;5573;49.592;8.662;2024-02-04T13:52:40;64.90;;;61.58;;
11039;SDS011;5573;49.592;8.662;2024-02-04T13:55:08;63.35;;;60.10;;
11039;SDS011;5573;49.592;8.662;2024-02-04T13:57:36;62.80;;;59.58;;
11039;SDS011;5573;49.592;8.662;2024-02-04T14:00:04;60.15;;;57.05;;
11039;SDS011;5573;49.592;8.662;2024-02-04T14:02:33;65.85;;;62.40;;
11039;SDS011;5573;49.592;8.662;2024-02-04T14:05:01;62.90;;;59.63;;
11039;SDS011;5573;49.592;8.662;2024-02-04T14:07:31;61.25;;;58.13;;
11039;SDS011;5573;49.592;8.662;2024-02-04T14:09:58;67.28;;;63.83;;
11039;SDS011;5573;49.592;8.662;2024-02-04T14:12:26;65.60;;;62.22;;
11039;SDS011;5573;49.592;8.662;2024-02-04T14:14:55;65.43;;;62.03;;
11039;SDS011;5573;49.592;8.662;2024-02-04T14:17:23;67.43;;;63.95;;
11039;SDS011;5573;49.592;8.662;2024-02-04T14:19:51;66.75;;;63.28;;
11039;SDS011;5573;49.592;8.662;2024-02-04T14:22:19;60.42;;;57.30;;
11039;SDS011;5573;49.592;8.662;2024-02-04T14:24:50;64.82;;;61.42;;
11039;SDS011;5573;49.592;8.662;2024-02-04T14:27:18;61.08;;;57.90;;
11039;SDS011;5573;49.592;8.662;2024-02-04T14:29:46;61.22;;;58.05;;
11039;SDS011;5573;49.592;8.662;2024-02-04T14:32:14;58.10;;;55.08;;
11039;SDS011;5573;49.592;8.662;2024-02-04T14:34:42;56.70;;;53.67;;
11039;SDS011;5573;49.592;8.662;2024-02-04T14:37:10;53.83;;;51.00;;
11039;SDS011;5573;49.592;8.662;2024-02-04T14:39:40;58.53;;;55.38;;